createdAt,value
2022-09-23T00:05:20.347Z,52.34
2022-09-23T00:08:41.333Z,51.98
2022-09-23T00:11:58.335Z,51.31
2022-09-23T00:19:09.704Z,50.44
2022-09-23T00:22:48.497Z,49.79
2022-09-23T00:26:35.713Z,49.30
2022-09-23T00:29:45.294Z,48.57
2022-09-23T00:33:14.577Z,47.66
2022-09-23T00:36:45.742Z,47.30
2022-09-23T00:40:07.040Z,45.37
2022-09-23T00:43:24.571Z,44.17
2022-09-23T00:46:45.465Z,42.89
2022-09-23T00:50:29.815Z,41.04
2022-09-23T00:54:19.333Z,39.69
2022-09-23T00:58:40.662Z,39.84
2022-09-23T01:01:33.567Z,38.22
2022-09-23T01:04:42.051Z,37.73
2022-09-23T01:07:53.157Z,36.30
2022-09-23T01:11:43.034Z,35.88
2022-09-23T01:15:07.827Z,35.42
2022-09-23T01:18:47.568Z,34.84
2022-09-23T01:22:24.455Z,33.69
2022-09-23T01:25:37.977Z,33.77
2022-09-23T01:29:08.058Z,34.18
2022-09-23T01:32:36.148Z,34.36
2022-09-23T01:36:14.105Z,33.22
2022-09-23T01:39:38.796Z,32.52
2022-09-23T01:43:13.195Z,32.27
2022-09-23T01:46:35.561Z,32.08
2022-09-23T01:49:55.241Z,32.19
2022-09-23T01:53:09.477Z,32.65
2022-09-23T01:56:34.349Z,34.30
2022-09-23T01:59:48.982Z,34.43
2022-09-23T02:03:24.261Z,35.38
2022-09-23T02:06:51.438Z,35.23
2022-09-23T02:10:13.378Z,35.27
2022-09-23T02:13:31.052Z,35.41
2022-09-23T02:16:45.123Z,35.82
2022-09-23T02:20:05.532Z,35.45
2022-09-23T02:24:04.076Z,34.17
2022-09-23T02:27:32.949Z,34.78
2022-09-23T02:30:51.579Z,34.12
2022-09-23T02:34:16.394Z,34.34
2022-09-23T02:37:33.092Z,33.79
2022-09-23T02:40:57.561Z,34.85
2022-09-23T02:44:30.938Z,35.06
2022-09-23T02:48:03.024Z,35.29
2022-09-23T02:51:34.634Z,36.15
2022-09-23T02:54:46.729Z,36.73
2022-09-23T02:57:54.517Z,36.10
2022-09-23T03:01:58.979Z,35.65
2022-09-23T03:05:36.738Z,34.35
2022-09-23T03:08:58.147Z,34.98
2022-09-23T03:12:38.156Z,35.43
2022-09-23T03:16:06.063Z,35.76
2022-09-23T03:19:36.146Z,33.94
2022-09-23T03:22:56.706Z,34.19
2022-09-23T03:26:24.849Z,35.04
2022-09-23T03:29:30.150Z,34.53
2022-09-23T03:32:39.273Z,34.16
2022-09-23T03:36:16.091Z,36.48
2022-09-23T03:39:34.340Z,34.77
2022-09-23T03:42:51.178Z,34.48
2022-09-23T03:46:46.781Z,34.06
2022-09-23T03:49:54.975Z,34.73
2022-09-23T03:53:02.454Z,34.25
2022-09-23T03:56:07.491Z,35.06
2022-09-23T03:59:20.760Z,34.46
2022-09-23T04:02:39.740Z,34.02
2022-09-23T04:06:05.573Z,33.71
2022-09-23T04:09:41.017Z,33.86
2022-09-23T04:13:20.988Z,33.02
2022-09-23T04:16:36.078Z,32.54
2022-09-23T04:19:48.493Z,32.21
2022-09-23T04:22:53.362Z,32.32
2022-09-23T04:25:59.526Z,32.17
2022-09-23T04:29:07.654Z,32.38
2022-09-23T04:32:14.545Z,32.41
2022-09-23T04:35:21.873Z,32.58
2022-09-23T04:38:49.413Z,31.33
2022-09-23T04:42:04.853Z,29.96
2022-09-23T04:45:22.637Z,30.59
2022-09-23T04:48:44.202Z,29.93
2022-09-23T04:51:55.274Z,29.02
2022-09-23T04:55:26.741Z,27.62
2022-09-23T04:58:40.589Z,28.47
2022-09-23T05:02:06.262Z,27.45
2022-09-23T05:05:25.331Z,27.59
2022-09-23T05:09:16.417Z,27.56
2022-09-23T05:12:37.609Z,27.52
2022-09-23T05:15:55.873Z,27.45
2022-09-23T05:19:00.794Z,27.83
2022-09-23T05:22:06.990Z,27.28
2022-09-23T05:25:17.101Z,27.37
2022-09-23T05:28:38.336Z,27.47
2022-09-23T05:31:48.333Z,27.56
2022-09-23T05:35:01.468Z,27.80
2022-09-23T05:38:24.434Z,27.05
2022-09-23T05:41:36.319Z,27.32
2022-09-23T05:45:06.740Z,27.41
2022-09-23T05:48:36.139Z,28.16
2022-09-23T05:51:46.953Z,28.24
2022-09-23T05:54:51.747Z,27.44
2022-09-23T05:58:01.146Z,27.55
2022-09-23T06:01:18.942Z,27.64
2022-09-23T06:04:26.835Z,27.36
2022-09-23T06:07:41.818Z,27.50
2022-09-23T06:10:57.139Z,27.12
2022-09-23T06:14:03.342Z,27.30
2022-09-23T06:17:11.239Z,27.38
2022-09-23T06:20:16.289Z,27.56
2022-09-23T06:23:23.944Z,27.96
2022-09-23T06:26:34.771Z,27.89
2022-09-23T06:30:04.006Z,27.99
2022-09-23T06:33:32.566Z,27.79
2022-09-23T06:37:01.766Z,28.00
2022-09-23T06:40:16.347Z,28.16
2022-09-23T06:43:22.531Z,28.32
2022-09-23T06:46:31.331Z,28.11
2022-09-23T06:49:37.103Z,27.95
2022-09-23T06:52:59.186Z,28.03
2022-09-23T06:56:09.185Z,28.50
2022-09-23T06:59:27.044Z,28.33
2022-09-23T07:02:33.650Z,28.20
2022-09-23T07:05:40.888Z,27.89
2022-09-23T07:08:49.323Z,28.04
2022-09-23T07:12:06.719Z,28.07
2022-09-23T07:15:16.382Z,28.07
2022-09-23T07:18:27.124Z,28.52
2022-09-23T07:21:49.370Z,28.98
2022-09-23T07:25:05.787Z,29.33
2022-09-23T07:28:14.788Z,29.18
2022-09-23T07:31:35.174Z,29.26
2022-09-23T07:34:47.295Z,28.90
2022-09-23T07:37:53.832Z,29.61
2022-09-23T07:41:09.842Z,30.89
2022-09-23T07:44:21.082Z,30.76
2022-09-23T07:47:36.379Z,31.25
2022-09-23T07:51:03.860Z,31.52
2022-09-23T07:54:14.053Z,31.01
2022-09-23T07:57:19.392Z,32.05
2022-09-23T08:00:24.258Z,32.91
2022-09-23T08:03:33.406Z,34.16
2022-09-23T08:06:54.343Z,34.98
2022-09-23T08:10:07.933Z,35.18
2022-09-23T08:13:38.231Z,36.16
2022-09-23T08:16:48.621Z,37.56
2022-09-23T08:19:59.004Z,38.54
2022-09-23T08:23:12.566Z,39.06
2022-09-23T08:26:25.101Z,39.33
2022-09-23T08:29:34.011Z,39.27
2022-09-23T08:32:42.076Z,39.76
2022-09-23T08:35:57.213Z,41.38
2022-09-23T08:39:08.012Z,42.26
2022-09-23T08:42:34.881Z,44.50
2022-09-23T08:46:01.584Z,44.17
2022-09-23T08:49:19.622Z,45.54
2022-09-23T08:52:59.892Z,48.43
2022-09-23T08:56:28.461Z,48.53
2022-09-23T08:59:45.689Z,50.86
2022-09-23T09:03:00.077Z,48.34
2022-09-23T09:06:20.598Z,50.90
2022-09-23T09:09:46.825Z,52.57
2022-09-23T09:13:18.354Z,51.74
2022-09-23T09:17:01.179Z,53.83
2022-09-23T09:20:37.937Z,54.44
2022-09-23T09:23:52.973Z,56.54
2022-09-23T09:26:59.574Z,52.63
2022-09-23T09:30:04.901Z,52.90
2022-09-23T09:33:16.817Z,55.23
2022-09-23T09:36:36.876Z,53.51
2022-09-23T09:39:43.538Z,53.03
2022-09-23T09:42:50.838Z,54.49
2022-09-23T09:46:16.812Z,56.96
2022-09-23T09:50:02.198Z,59.25
2022-09-23T09:53:36.644Z,59.15
2022-09-23T09:56:44.137Z,57.53
2022-09-23T09:59:55.932Z,57.62
2022-09-23T10:03:11.885Z,58.57
2022-09-23T10:06:20.495Z,58.69
2022-09-23T10:09:35.862Z,60.34
2022-09-23T10:12:49.863Z,60.52
2022-09-23T10:15:57.728Z,59.07
2022-09-23T10:19:04.844Z,61.03
2022-09-23T10:22:25.898Z,61.12
2022-09-23T10:25:30.734Z,60.87
2022-09-23T10:28:51.322Z,62.21
2022-09-23T10:32:23.340Z,61.64
2022-09-23T10:35:30.664Z,59.68
2022-09-23T10:38:35.571Z,59.91
2022-09-23T10:42:23.526Z,61.97
2022-09-23T10:45:53.348Z,61.78
2022-09-23T10:49:19.829Z,62.17
2022-09-23T10:52:37.252Z,64.59
2022-09-23T10:56:09.913Z,66.88
2022-09-23T10:59:24.374Z,64.06
2022-09-23T11:02:40.161Z,64.45
2022-09-23T11:06:20.018Z,64.46
2022-09-23T11:09:34.800Z,63.73
2022-09-23T11:12:58.294Z,65.20
2022-09-23T11:16:23.672Z,63.54
2022-09-23T11:19:52.475Z,62.32
2022-09-23T11:23:23.077Z,63.33
2022-09-23T11:27:11.460Z,65.21
2022-09-23T11:30:21.193Z,63.98
2022-09-23T11:33:37.645Z,64.26
2022-09-23T11:36:56.047Z,65.14
2022-09-23T11:40:13.792Z,65.80
2022-09-23T11:43:29.402Z,65.41
2022-09-23T11:46:43.091Z,66.00
2022-09-23T11:49:56.743Z,65.14
2022-09-23T11:53:08.818Z,64.82
2022-09-23T11:56:45.535Z,66.77
2022-09-23T11:59:59.422Z,66.96
2022-09-23T12:03:06.291Z,68.12
2022-09-23T12:06:23.795Z,68.85
2022-09-23T12:09:58.085Z,68.32
2022-09-23T12:13:24.674Z,70.18
2022-09-23T12:17:10.927Z,70.91
2022-09-23T12:20:32.129Z,69.27
2022-09-23T12:24:04.099Z,68.49
2022-09-23T12:27:13.424Z,68.64
2022-09-23T12:30:24.516Z,69.61
2022-09-23T12:33:35.095Z,69.62
2022-09-23T12:36:43.650Z,69.86
2022-09-23T12:40:07.725Z,70.65
2022-09-23T12:43:33.877Z,69.98
2022-09-23T12:47:27.928Z,70.31
2022-09-23T12:51:01.847Z,70.37
2022-09-23T12:54:09.831Z,68.64
2022-09-23T12:57:36.054Z,70.28
2022-09-23T13:00:43.886Z,71.28
2022-09-23T13:04:12.681Z,71.65
2022-09-23T13:07:35.041Z,72.74
2022-09-23T13:10:56.274Z,72.45
2022-09-23T13:14:05.466Z,71.33
2022-09-23T13:17:44.839Z,73.82
2022-09-23T13:20:57.289Z,72.71
2022-09-23T13:24:29.152Z,73.54
2022-09-23T13:27:36.839Z,71.14
2022-09-23T13:30:56.995Z,70.77
2022-09-23T13:34:05.827Z,70.13
2022-09-23T13:37:23.931Z,71.30
2022-09-23T13:40:35.359Z,70.26
2022-09-23T13:43:45.019Z,70.65
2022-09-23T13:46:53.272Z,71.01
2022-09-23T13:50:02.852Z,70.62
2022-09-23T13:53:11.297Z,70.53
2022-09-23T13:56:17.191Z,70.66
2022-09-23T13:59:31.865Z,70.46
2022-09-23T14:02:45.213Z,69.94
2022-09-23T14:05:53.505Z,70.45
2022-09-23T14:09:09.373Z,70.52
2022-09-23T14:12:25.077Z,71.62
2022-09-23T14:15:38.899Z,72.00
2022-09-23T14:18:50.481Z,71.53
2022-09-23T14:22:12.501Z,71.52
2022-09-23T14:25:22.653Z,72.93
2022-09-23T14:28:29.034Z,72.64
2022-09-23T14:31:36.232Z,72.28
2022-09-23T14:34:45.952Z,74.65
2022-09-23T14:38:12.970Z,75.90
2022-09-23T14:41:27.679Z,77.09
2022-09-23T14:44:36.075Z,77.00
2022-09-23T14:48:06.156Z,76.27
2022-09-23T14:51:17.040Z,75.98
2022-09-23T14:54:44.876Z,76.60
2022-09-23T14:57:49.947Z,76.90
2022-09-23T15:01:02.570Z,77.11
2022-09-23T15:04:21.620Z,77.28
2022-09-23T15:07:27.948Z,76.64
2022-09-23T15:10:35.846Z,77.00
2022-09-23T15:13:50.457Z,77.86
2022-09-23T15:16:58.504Z,77.79
2022-09-23T15:20:23.317Z,75.76
2022-09-23T15:23:42.440Z,75.60
2022-09-23T15:26:55.112Z,75.42
2022-09-23T15:30:29.618Z,78.45
2022-09-23T15:33:35.186Z,77.85
2022-09-23T15:36:40.811Z,76.89
2022-09-23T15:39:48.906Z,76.95
2022-09-23T15:43:08.344Z,76.70
2022-09-23T15:46:23.291Z,77.67
2022-09-23T15:49:40.472Z,76.23
2022-09-23T15:52:54.236Z,76.89
2022-09-23T15:56:25.932Z,75.39
2022-09-23T15:59:36.147Z,78.14
2022-09-23T16:02:41.923Z,77.82
2022-09-23T16:05:50.275Z,78.53
2022-09-23T16:09:03.570Z,76.91
2022-09-23T16:12:14.602Z,77.31
2022-09-23T16:15:29.886Z,77.19
2022-09-23T16:18:42.866Z,76.59
2022-09-23T16:21:50.836Z,75.54
2022-09-23T16:25:05.113Z,75.63
2022-09-23T16:28:15.954Z,75.90
2022-09-23T16:31:31.696Z,77.25
2022-09-23T16:34:39.498Z,76.06
2022-09-23T16:37:50.088Z,76.64
2022-09-23T16:41:01.656Z,78.04
2022-09-23T16:44:09.157Z,79.89
2022-09-23T16:47:22.693Z,79.40
2022-09-23T16:50:27.784Z,80.13
2022-09-23T16:53:38.480Z,80.76
2022-09-23T16:56:50.513Z,83.09
2022-09-23T17:00:16.690Z,82.61
2022-09-23T17:03:44.352Z,83.73
2022-09-23T17:06:55.493Z,85.11
2022-09-23T17:10:14.473Z,82.92
2022-09-23T17:13:21.909Z,82.73
2022-09-23T17:16:31.593Z,83.56
2022-09-23T17:19:42.184Z,85.00
2022-09-23T17:22:46.836Z,83.11
2022-09-23T17:25:51.626Z,82.45
2022-09-23T17:28:57.560Z,84.32
2022-09-23T17:32:11.443Z,84.36
2022-09-23T17:35:23.157Z,84.32
2022-09-23T17:38:41.541Z,85.72
2022-09-23T17:41:46.452Z,85.29
2022-09-23T17:45:10.217Z,85.12
2022-09-23T17:48:23.423Z,84.09
2022-09-23T17:51:38.609Z,83.75
2022-09-23T17:54:56.740Z,85.08
2022-09-23T17:58:06.724Z,88.23
2022-09-23T18:01:47.155Z,86.28
2022-09-23T18:04:56.573Z,87.86
2022-09-23T18:08:06.030Z,89.40
2022-09-23T18:11:26.513Z,95.48
2022-09-23T18:15:38.289Z,92.33
2022-09-23T18:18:10.131Z,88.95
2022-09-23T18:21:18.031Z,88.93
2022-09-23T18:24:38.243Z,90.10
2022-09-23T18:27:50.987Z,87.36
2022-09-23T18:31:02.580Z,89.04
2022-09-23T18:34:20.151Z,89.97
2022-09-23T18:37:27.735Z,94.65
2022-09-23T18:40:48.098Z,91.89
2022-09-23T18:44:19.691Z,90.18
2022-09-23T18:47:57.703Z,94.13
2022-09-23T18:51:08.151Z,92.79
2022-09-23T18:54:37.367Z,90.59
2022-09-23T18:57:55.200Z,92.47
2022-09-23T19:01:10.975Z,90.91
2022-09-23T19:04:24.515Z,90.23
2022-09-23T19:07:36.433Z,92.54
2022-09-23T19:10:44.181Z,90.45
2022-09-23T19:13:56.203Z,90.94
2022-09-23T19:17:01.403Z,92.69
2022-09-23T19:20:08.496Z,91.94
2022-09-23T19:23:13.143Z,96.68
2022-09-23T19:26:23.077Z,94.57
2022-09-23T19:29:30.783Z,93.32
2022-09-23T19:32:40.106Z,92.88
2022-09-23T19:35:49.840Z,94.89
2022-09-23T19:38:58.158Z,93.77
2022-09-23T19:42:05.619Z,95.38
2022-09-23T19:45:19.482Z,96.04
2022-09-23T19:48:24.330Z,96.66
2022-09-23T19:51:30.161Z,96.37
2022-09-23T19:54:34.640Z,98.80
2022-09-23T19:57:44.374Z,98.56
2022-09-23T20:00:49.390Z,97.09
2022-09-23T20:03:54.447Z,94.37
2022-09-23T20:07:01.926Z,93.11
2022-09-23T20:10:08.351Z,95.31
2022-09-23T20:13:16.145Z,94.92
2022-09-23T20:16:22.074Z,95.33
2022-09-23T20:19:26.784Z,95.94
2022-09-23T20:22:35.017Z,93.80
2022-09-23T20:25:59.359Z,93.69
2022-09-23T20:29:04.652Z,92.67
2022-09-23T20:32:12.545Z,93.67
2022-09-23T20:35:18.492Z,92.57
2022-09-23T20:38:25.898Z,92.78
2022-09-23T20:41:32.310Z,93.65
2022-09-23T20:44:44.061Z,91.33
2022-09-23T20:47:51.873Z,99.21
2022-09-23T20:51:07.405Z,99.71
2022-09-23T20:54:14.958Z,100.00
2022-09-23T20:57:22.881Z,99.49
2022-09-23T21:00:30.306Z,99.22
2022-09-23T21:03:37.918Z,99.87
2022-09-23T21:06:42.559Z,98.98
2022-09-23T21:09:47.119Z,99.01
2022-09-23T21:12:55.198Z,98.93
2022-09-23T21:16:12.169Z,99.75
2022-09-23T21:19:16.694Z,98.11
2022-09-23T21:22:30.745Z,95.61
2022-09-23T21:25:37.264Z,95.53
2022-09-23T21:28:46.064Z,95.36
2022-09-23T21:31:53.187Z,96.00
2022-09-23T21:35:00.750Z,97.36
2022-09-23T21:38:07.014Z,97.35
2022-09-23T21:41:12.475Z,96.87
2022-09-23T21:44:17.039Z,96.96
2022-09-23T21:47:21.470Z,95.86
2022-09-23T21:50:39.306Z,94.60
2022-09-23T21:53:47.654Z,93.31
2022-09-23T21:56:55.632Z,92.67
2022-09-23T22:00:00.338Z,92.89
2022-09-23T22:03:09.397Z,93.02
2022-09-23T22:06:22.345Z,91.74
2022-09-23T22:09:27.848Z,93.54
2022-09-23T22:12:37.241Z,94.00
2022-09-23T22:15:42.829Z,96.64
2022-09-23T22:18:47.557Z,92.39
2022-09-23T22:21:53.528Z,88.59
2022-09-23T22:24:59.570Z,87.85
2022-09-23T22:28:23.185Z,88.68
2022-09-23T22:31:46.121Z,88.96
2022-09-23T22:34:52.349Z,88.43
2022-09-23T22:38:07.521Z,89.39
2022-09-23T22:41:17.665Z,89.41
2022-09-23T22:44:22.819Z,89.84
2022-09-23T22:47:33.175Z,87.24
2022-09-23T22:51:01.188Z,86.69
2022-09-23T22:54:07.762Z,88.24
2022-09-23T22:57:32.577Z,87.77
2022-09-23T23:00:50.108Z,86.72
2022-09-23T23:04:04.751Z,85.99
2022-09-23T23:07:21.330Z,84.88
2022-09-23T23:10:53.452Z,84.57
2022-09-23T23:14:34.702Z,87.22
2022-09-23T23:17:46.190Z,87.00
2022-09-23T23:21:16.871Z,86.75
2022-09-23T23:24:51.734Z,87.54
2022-09-23T23:28:25.779Z,86.86
2022-09-23T23:31:56.466Z,87.82
2022-09-23T23:35:17.012Z,86.73
2022-09-23T23:39:02.456Z,87.06
2022-09-23T23:43:07.258Z,86.45
2022-09-23T23:46:02.484Z,86.83
2022-09-23T23:50:19.322Z,86.12
2022-09-23T23:53:20.532Z,85.76
2022-09-23T23:56:26.579Z,85.09
2022-09-23T23:59:37.340Z,83.09
